Time;durP1;ratioP1;P1;durP2;ratioP2;P2;SDS_P1;SDS_P2;PMS_P1;PMS_P2;Temp;Humidity;BMP_temperature;BMP_pressure;BME280_temperature;BME280_humidity;BME280_pressure;Samples;Min_cycle;Max_cycle;Signal;HPM_P1;HPM_P2
2021/10/23 00:02:10;;;;;;;1.10;1.00;;;4.90;99.90;4.20;97151.00;;;;5066328;28;20212;-67
2021/10/23 00:04:59;;;;;;;1.43;1.33;;;4.90;99.90;4.30;97165.00;;;;5065554;28;20223;-66
2021/10/23 00:07:48;;;;;;;1.33;1.23;;;4.80;99.90;4.40;97165.00;;;;5069652;28;20226;-66
2021/10/23 00:10:37;;;;;;;1.87;1.33;;;4.80;99.90;4.50;97176.00;;;;5073049;28;20219;-66
2021/10/23 00:13:27;;;;;;;1.60;1.40;;;4.90;99.90;4.50;97169.00;;;;5076623;28;20207;-66
2021/10/23 00:16:16;;;;;;;2.20;1.33;;;4.90;99.90;4.40;97173.00;;;;5067115;28;20204;-66
2021/10/23 00:19:05;;;;;;;1.63;1.10;;;4.90;99.90;4.30;97181.00;;;;5079081;28;20203;-67
2021/10/23 00:21:54;;;;;;;1.30;1.20;;;4.90;99.90;4.20;97175.00;;;;5066534;28;20231;-67
2021/10/23 00:24:43;;;;;;;0.83;0.83;;;4.80;99.90;4.10;97175.00;;;;5074400;28;20219;-67
2021/10/23 00:27:32;;;;;;;1.30;1.20;;;4.80;99.90;3.80;97179.00;;;;5072096;28;20203;-66
2021/10/23 00:30:23;;;;;;;2.77;1.53;;;4.70;99.90;3.50;97179.00;;;;5071760;28;20107;-66
2021/10/23 00:33:11;;;;;;;1.70;1.30;;;4.50;99.90;3.60;97172.00;;;;5077034;28;20382;-66
2021/10/23 00:36:00;;;;;;;1.07;1.07;;;4.40;99.90;3.60;97182.00;;;;5078432;28;20203;-66
2021/10/23 00:38:49;;;;;;;2.00;1.23;;;4.30;99.90;3.40;97182.00;;;;5070272;28;20246;-66
2021/10/23 00:41:39;;;;;;;2.23;1.53;;;4.20;99.90;3.60;97187.00;;;;5071839;28;20544;-66
2021/10/23 00:44:30;;;;;;;1.40;1.30;;;4.10;99.90;3.80;97186.00;;;;5077038;28;20483;-66
2021/10/23 00:47:22;;;;;;;2.30;1.43;;;4.20;99.90;3.80;97196.00;;;;5074031;28;20794;-66
2021/10/23 00:50:11;;;;;;;1.60;1.03;;;4.20;99.90;3.80;97184.00;;;;5068757;28;20425;-65
2021/10/23 00:53:00;;;;;;;1.03;0.93;;;4.30;99.90;3.80;97183.00;;;;5080005;28;20808;-66
2021/10/23 00:55:49;;;;;;;1.30;1.20;;;4.30;99.90;4.00;97193.00;;;;5076798;28;20634;-66
2021/10/23 00:58:39;;;;;;;1.80;1.40;;;4.30;99.90;3.80;97182.00;;;;5073219;28;20425;-65
2021/10/23 01:01:28;;;;;;;1.83;1.33;;;4.30;99.90;3.50;97186.00;;;;5072158;28;20452;-66
2021/10/23 01:04:20;;;;;;;1.33;1.20;;;4.30;99.90;3.50;97184.00;;;;5072313;28;20571;-66
2021/10/23 01:07:10;;;;;;;1.07;1.03;;;4.20;99.90;3.50;97181.00;;;;5066368;28;20423;-65
2021/10/23 01:10:00;;;;;;;0.97;0.93;;;4.10;99.90;3.70;97196.00;;;;5071681;28;20429;-66
2021/10/23 01:12:48;;;;;;;5.13;1.73;;;4.10;99.90;3.30;97185.00;;;;5069860;28;20429;-65
2021/10/23 01:15:37;;;;;;;5.70;1.57;;;4.10;99.90;3.30;97197.00;;;;5079245;28;20425;-66
2021/10/23 01:18:26;;;;;;;1.20;1.10;;;4.00;99.90;3.60;97198.00;;;;5071880;28;20643;-64
2021/10/23 01:21:20;;;;;;;2.50;1.00;;;4.00;99.90;3.40;97191.00;;;;5070841;28;20806;-65
2021/10/23 01:24:10;;;;;;;1.47;1.27;;;4.00;99.90;3.60;97205.00;;;;5069868;28;20454;-66
2021/10/23 01:26:59;;;;;;;1.23;1.13;;;4.00;99.90;3.40;97210.00;;;;5065102;28;20422;-66
2021/10/23 01:29:48;;;;;;;1.43;1.30;;;4.00;99.90;3.30;97203.00;;;;5064531;28;20430;-65
2021/10/23 01:32:38;;;;;;;1.23;1.17;;;3.90;99.90;3.30;97208.00;;;;5078929;28;21010;-65
2021/10/23 01:35:27;;;;;;;1.58;1.30;;;3.90;99.90;3.50;97210.00;;;;5066359;28;20449;-65
2021/10/23 01:38:17;;;;;;;1.47;0.83;;;4.00;99.90;3.60;97202.00;;;;5073337;28;20663;-67
2021/10/23 01:41:07;;;;;;;2.87;1.20;;;4.00;99.90;3.20;97216.00;;;;5072984;28;20237;-66
2021/10/23 01:43:56;;;;;;;0.80;0.80;;;4.00;99.90;3.10;97218.00;;;;5065875;28;20693;-66
2021/10/23 01:46:45;;;;;;;2.03;0.97;;;3.90;99.90;3.10;97212.00;;;;5082625;28;20844;-65
2021/10/23 01:49:34;;;;;;;0.87;0.87;;;3.80;99.90;3.20;97204.00;;;;5072497;28;20430;-66
2021/10/23 01:52:23;;;;;;;0.90;0.90;;;3.80;99.90;3.30;97217.00;;;;5075202;28;20456;-64
2021/10/23 01:55:15;;;;;;;2.27;1.07;;;3.80;99.90;3.40;97209.00;;;;5065954;28;20434;-65
2021/10/23 01:58:04;;;;;;;0.90;0.90;;;3.80;99.90;3.30;97213.00;;;;5068642;28;20427;-66
2021/10/23 02:00:53;;;;;;;1.00;1.00;;;3.80;99.90;3.00;97222.00;;;;5072291;28;20442;-66
2021/10/23 02:03:42;;;;;;;1.17;1.00;;;3.80;99.90;2.90;97215.00;;;;5073260;28;20470;-65
2021/10/23 02:06:31;;;;;;;1.10;1.00;;;3.70;99.90;3.20;97217.00;;;;5066261;28;20449;-67
2021/10/23 02:09:20;;;;;;;1.77;1.00;;;3.70;99.90;3.30;97230.00;;;;5079654;28;20418;-65
2021/10/23 02:12:10;;;;;;;1.27;1.03;;;3.70;99.90;3.10;97223.00;;;;5064423;28;20450;-66
2021/10/23 02:14:59;;;;;;;1.17;1.07;;;3.80;99.90;3.10;97219.00;;;;5073835;28;20422;-66
2021/10/23 02:17:47;;;;;;;2.23;1.13;;;3.70;99.90;3.10;97228.00;;;;5066152;28;20804;-66
2021/10/23 02:20:36;;;;;;;1.17;1.00;;;3.70;99.90;2.50;97231.00;;;;5077681;28;20417;-65
2021/10/23 02:23:26;;;;;;;1.20;1.10;;;3.50;99.90;2.70;97231.00;;;;5064641;28;20414;-67
2021/10/23 02:26:15;;;;;;;2.20;0.70;;;3.50;99.90;3.00;97229.00;;;;5071550;28;20429;-65
2021/10/23 02:29:05;;;;;;;1.30;0.93;;;3.50;99.90;3.10;97233.00;;;;5066623;28;20423;-66
2021/10/23 02:31:54;;;;;;;1.50;1.13;;;3.50;99.90;2.90;97233.00;;;;5078768;28;20990;-66
2021/10/23 02:34:43;;;;;;;1.17;1.03;;;3.50;99.90;2.90;97247.00;;;;5064627;28;20448;-66
2021/10/23 02:37:32;;;;;;;1.10;1.00;;;3.50;99.90;3.20;97248.00;;;;5073152;28;20806;-66
2021/10/23 02:40:21;;;;;;;1.43;1.00;;;3.60;99.90;3.40;97259.00;;;;5071836;28;20962;-65
2021/10/23 02:43:09;;;;;;;0.90;0.90;;;3.70;99.90;3.30;97258.00;;;;5074385;28;20429;-65
2021/10/23 02:45:59;;;;;;;0.70;0.70;;;3.80;99.90;3.20;97257.00;;;;5075247;28;20457;-66
2021/10/23 02:48:48;;;;;;;1.53;1.30;;;3.80;99.90;3.20;97264.00;;;;5084151;28;20434;-66
2021/10/23 02:51:37;;;;;;;2.17;1.10;;;3.80;99.90;3.20;97260.00;;;;5082004;28;21048;-66
2021/10/23 02:54:26;;;;;;;1.80;1.00;;;4.10;99.90;3.10;97261.00;;;;5067585;28;20433;-66
2021/10/23 02:57:15;;;;;;;1.17;1.07;;;3.70;99.90;2.60;97269.00;;;;5087869;28;20463;-66
2021/10/23 03:00:10;;;;;;;0.60;0.60;;;3.60;99.90;2.20;97258.00;;;;5072708;28;20442;-67
2021/10/23 03:03:00;;;;;;;1.83;0.80;;;3.40;99.90;2.10;97262.00;;;;5091284;28;20433;-66
2021/10/23 03:05:49;;;;;;;1.10;0.90;;;3.20;99.90;2.20;97264.00;;;;5083894;28;20466;-66
2021/10/23 03:08:38;;;;;;;1.03;0.90;;;3.10;99.90;2.30;97267.00;;;;5098587;28;20846;-66
2021/10/23 03:11:27;;;;;;;1.10;1.00;;;3.10;99.90;2.50;97268.00;;;;5091868;28;20441;-65
2021/10/23 03:14:16;;;;;;;1.60;1.27;;;3.10;99.90;2.60;97284.00;;;;5092282;28;20425;-66
2021/10/23 03:17:04;;;;;;;1.20;0.90;;;3.10;99.90;2.60;97285.00;;;;5068024;28;20453;-65
2021/10/23 03:19:56;;;;;;;2.70;1.43;;;3.20;99.90;2.60;97279.00;;;;5081829;28;20423;-65
2021/10/23 03:22:45;;;;;;;2.73;0.90;;;3.20;99.90;2.80;97290.00;;;;5070446;28;20429;-66
2021/10/23 03:25:34;;;;;;;1.43;1.20;;;3.30;99.90;3.00;97280.00;;;;5073062;28;20463;-66
2021/10/23 03:28:23;;;;;;;1.87;1.37;;;3.40;99.90;3.10;97279.00;;;;5079228;28;20416;-66
2021/10/23 03:31:12;;;;;;;1.00;0.90;;;3.40;99.90;2.80;97290.00;;;;5095256;28;20991;-66
2021/10/23 03:34:01;;;;;;;0.97;0.87;;;3.40;99.90;2.90;97289.00;;;;5073888;28;20422;-65
2021/10/23 03:36:51;;;;;;;2.30;1.10;;;3.40;99.90;2.50;97288.00;;;;5074928;28;20418;-66
2021/10/23 03:39:40;;;;;;;1.50;0.97;;;3.30;99.90;2.40;97287.00;;;;5066026;28;20968;-66
2021/10/23 03:42:29;;;;;;;0.93;0.90;;;3.30;99.90;2.40;97287.00;;;;5079267;28;20968;-65
2021/10/23 03:45:18;;;;;;;1.10;1.00;;;3.20;99.90;2.30;97301.00;;;;5080169;28;21174;-66
2021/10/23 03:48:07;;;;;;;2.40;1.03;;;3.10;99.90;2.10;97294.00;;;;5078403;28;20425;-66
2021/10/23 03:50:55;;;;;;;1.17;1.07;;;3.00;99.90;2.30;97296.00;;;;5078945;28;20442;-66
2021/10/23 03:53:45;;;;;;;1.73;1.10;;;3.00;99.90;2.40;97308.00;;;;5068837;28;20426;-66
2021/10/23 03:56:34;;;;;;;0.97;0.97;;;3.00;99.90;2.20;97305.00;;;;5097931;28;20417;-66
2021/10/23 03:59:23;;;;;;;0.83;0.83;;;3.00;99.90;2.00;97300.00;;;;5076286;28;20421;-65
2021/10/23 04:02:12;;;;;;;1.80;1.03;;;2.90;99.90;2.10;97309.00;;;;5075208;28;20829;-65
2021/10/23 04:05:00;;;;;;;5.20;1.17;;;2.90;99.90;2.30;97316.00;;;;5069490;28;20466;-66
2021/10/23 04:07:49;;;;;;;1.43;1.33;;;2.90;99.90;2.40;97316.00;;;;5081191;28;20420;-66
2021/10/23 04:10:39;;;;;;;0.90;0.90;;;2.90;99.90;2.50;97326.00;;;;5075662;28;20457;-66
2021/10/23 04:13:28;;;;;;;1.10;1.10;;;3.00;99.90;2.60;97329.00;;;;5066148;28;20434;-65
2021/10/23 04:16:17;;;;;;;2.13;1.30;;;3.00;99.90;2.50;97334.00;;;;5080018;28;20422;-66
2021/10/23 04:19:06;;;;;;;2.50;1.37;;;3.10;99.90;2.60;97333.00;;;;5079656;28;20440;-66
2021/10/23 04:21:55;;;;;;;1.00;1.00;;;3.10;99.90;2.50;97345.00;;;;5088371;28;20449;-66
2021/10/23 04:24:44;;;;;;;2.17;1.33;;;3.10;99.90;2.20;97348.00;;;;5087325;28;20427;-66
2021/10/23 04:27:34;;;;;;;0.90;0.90;;;3.00;99.90;2.10;97346.00;;;;5091735;28;20434;-66
2021/10/23 04:30:23;;;;;;;2.43;1.07;;;2.90;99.90;2.30;97352.00;;;;5065650;28;20435;-66
2021/10/23 04:33:12;;;;;;;0.90;0.90;;;2.90;99.90;2.30;97348.00;;;;5091227;28;20436;-65
2021/10/23 04:36:00;;;;;;;1.83;0.90;;;2.90;99.90;2.20;97363.00;;;;5097053;28;20425;-66
2021/10/23 04:38:49;;;;;;;1.87;1.30;;;2.90;99.90;2.20;97352.00;;;;5082658;28;20414;-65
2021/10/23 04:41:38;;;;;;;1.50;1.03;;;2.90;99.90;2.30;97366.00;;;;5095508;28;20819;-65
2021/10/23 04:44:29;;;;;;;1.33;1.23;;;3.00;99.90;2.10;97365.00;;;;5074338;28;20428;-65
2021/10/23 04:47:17;;;;;;;1.43;1.30;;;2.90;99.90;2.10;97370.00;;;;5066799;28;20482;-66
2021/10/23 04:50:07;;;;;;;1.63;1.53;;;2.90;99.90;2.20;97370.00;;;;5079888;28;20426;-66
2021/10/23 04:52:56;;;;;;;1.53;1.20;;;2.80;99.90;2.30;97367.00;;;;5103353;28;20428;-66
2021/10/23 04:55:44;;;;;;;2.33;1.30;;;2.90;99.90;2.40;97376.00;;;;5065323;28;20426;-65
2021/10/23 04:58:33;;;;;;;1.40;1.23;;;2.90;99.90;2.30;97374.00;;;;5069343;28;20446;-67
2021/10/23 05:01:23;;;;;;;1.73;1.27;;;3.00;99.90;2.50;97383.00;;;;5075138;28;20991;-66
2021/10/23 05:04:12;;;;;;;4.80;1.50;;;3.00;99.90;2.60;97385.00;;;;5098144;28;20427;-67
2021/10/23 05:07:01;;;;;;;1.13;0.93;;;3.00;99.90;2.70;97386.00;;;;5066543;28;20496;-64
2021/10/23 05:09:51;;;;;;;5.60;1.13;;;3.10;99.90;2.40;97378.00;;;;5068240;28;20434;-64
2021/10/23 05:12:39;;;;;;;1.33;1.23;;;3.10;99.90;2.00;97378.00;;;;5066508;28;20834;-66
2021/10/23 05:15:28;;;;;;;2.13;1.50;;;2.90;99.90;2.20;97392.00;;;;5065867;28;20430;-67
2021/10/23 05:18:18;;;;;;;1.30;1.20;;;2.90;99.90;2.40;97395.00;;;;5079120;28;20435;-64
2021/10/23 05:21:07;;;;;;;1.27;1.17;;;2.90;99.90;2.00;97398.00;;;;5067238;28;20999;-67
2021/10/23 05:23:57;;;;;;;8.33;1.80;;;2.90;99.90;2.10;97402.00;;;;5073618;28;21128;-66
2021/10/23 05:26:46;;;;;;;4.60;1.87;;;2.80;99.90;2.40;97411.00;;;;5083656;28;20472;-66
2021/10/23 05:29:35;;;;;;;1.73;1.37;;;2.90;99.90;2.60;97400.00;;;;5089390;28;20427;-66
2021/10/23 05:32:24;;;;;;;4.20;2.43;;;2.90;99.90;2.40;97406.00;;;;5064816;28;20450;-66
2021/10/23 05:35:14;;;;;;;2.43;1.47;;;3.00;99.90;1.70;97388.00;;;;5065763;28;20497;-66
2021/10/23 05:38:03;;;;;;;1.90;1.37;;;2.80;99.90;1.60;97408.00;;;;5073041;28;20429;-67
2021/10/23 05:40:51;;;;;;;1.47;1.37;;;2.70;99.90;1.70;97411.00;;;;5080507;28;20442;-66
2021/10/23 05:43:40;;;;;;;1.90;1.30;;;3.40;99.90;1.60;97412.00;;;;5065663;28;20430;-66
2021/10/23 05:46:29;;;;;;;2.00;1.80;;;2.50;99.90;2.00;97420.00;;;;5075514;28;20469;-66
2021/10/23 05:49:19;;;;;;;2.20;1.53;;;2.60;99.90;2.20;97420.00;;;;5070159;28;20436;-66
2021/10/23 05:52:09;;;;;;;2.03;1.63;;;2.60;99.90;2.10;97425.00;;;;5094565;28;20456;-67
2021/10/23 05:54:58;;;;;;;2.33;1.67;;;2.70;99.90;1.90;97437.00;;;;5091392;28;20440;-66
2021/10/23 05:57:47;;;;;;;1.60;1.37;;;2.70;99.90;1.80;97419.00;;;;5089759;28;20693;-66
2021/10/23 06:00:37;;;;;;;2.00;1.73;;;2.70;99.90;1.90;97431.00;;;;5096221;28;20428;-66
2021/10/23 06:03:26;;;;;;;3.00;1.70;;;2.70;99.90;2.20;97438.00;;;;5065631;28;20951;-67
2021/10/23 06:06:17;;;;;;;3.27;1.70;;;2.70;99.90;2.20;97439.00;;;;5065487;28;20462;-67
2021/10/23 06:09:07;;;;;;;1.70;1.60;;;2.80;99.90;2.30;97435.00;;;;5073688;28;20426;-67
2021/10/23 06:12:00;;;;;;;4.00;1.90;;;2.80;99.90;2.40;97442.00;;;;5064987;28;20431;-67
2021/10/23 06:14:49;;;;;;;1.30;1.20;;;2.90;99.90;2.20;97442.00;;;;5069947;28;20453;-66
2021/10/23 06:17:38;;;;;;;1.83;1.10;;;2.90;99.90;2.50;97456.00;;;;5074966;28;20422;-67
2021/10/23 06:20:26;;;;;;;3.53;1.90;;;3.00;99.90;2.30;97456.00;;;;5080739;28;20417;-66
2021/10/23 06:23:15;;;;;;;3.90;1.92;;;3.00;99.90;2.10;97463.00;;;;5080366;28;20874;-67
2021/10/23 06:26:05;;;;;;;4.03;1.80;;;3.00;99.90;2.30;97460.00;;;;5071925;28;20241;-67
2021/10/23 06:28:54;;;;;;;2.53;1.87;;;3.00;99.90;2.50;97466.00;;;;5074878;28;20448;-66
2021/10/23 06:31:43;;;;;;;1.60;1.50;;;3.00;99.90;2.60;97473.00;;;;5078228;28;20452;-66
2021/10/23 06:34:32;;;;;;;1.87;1.23;;;3.10;99.90;2.20;97469.00;;;;5067638;28;20790;-67
2021/10/23 06:37:21;;;;;;;3.60;1.37;;;3.10;99.90;2.50;97478.00;;;;5070092;28;20428;-67
2021/10/23 06:40:11;;;;;;;2.43;1.43;;;3.10;99.90;3.10;97473.00;;;;5075159;28;20430;-66
2021/10/23 06:43:01;;;;;;;1.40;1.13;;;3.30;99.90;3.20;97469.00;;;;5070034;28;20441;-66
2021/10/23 06:45:53;;;;;;;2.70;1.30;;;3.50;99.90;2.90;97495.00;;;;5078652;28;21022;-65
2021/10/23 06:48:41;;;;;;;5.60;1.90;;;3.60;99.90;2.40;97495.00;;;;5068595;28;20495;-66
2021/10/23 06:51:30;;;;;;;1.53;1.40;;;3.40;99.90;2.60;97498.00;;;;5067408;28;20446;-66
2021/10/23 06:54:19;;;;;;;2.90;1.80;;;3.40;99.90;2.80;97504.00;;;;5077628;28;20414;-65
2021/10/23 06:57:08;;;;;;;2.77;1.70;;;3.40;99.90;3.20;97489.00;;;;5069851;28;20430;-65
2021/10/23 07:00:13;;;;;;;2.70;1.83;;;3.50;99.90;3.50;97498.00;;;;5080936;28;20939;-65
2021/10/23 07:03:02;;;;;;;1.73;1.63;;;3.70;99.90;3.30;97498.00;;;;5082415;28;20840;-66
2021/10/23 07:05:52;;;;;;;3.00;2.40;;;3.80;99.90;3.30;97492.00;;;;5067014;28;20442;-66
2021/10/23 07:08:40;;;;;;;2.13;1.73;;;3.80;99.90;2.70;97509.00;;;;5073564;28;20434;-67
2021/10/23 07:11:29;;;;;;;1.80;1.70;;;3.80;99.90;3.10;97499.00;;;;5070133;28;20438;-67
2021/10/23 07:14:18;;;;;;;1.73;1.53;;;3.70;99.90;3.70;97510.00;;;;5080201;28;20426;-66
2021/10/23 07:17:08;;;;;;;3.20;2.90;;;3.90;99.90;3.70;97533.00;;;;5068852;28;20426;-66
2021/10/23 07:19:57;;;;;;;1.97;1.70;;;4.10;99.90;3.70;97526.00;;;;5072202;28;20422;-66
2021/10/23 07:22:46;;;;;;;2.57;1.87;;;4.20;99.90;4.40;97519.00;;;;5068068;28;20427;-66
2021/10/23 07:25:35;;;;;;;2.93;2.20;;;4.30;99.90;4.50;97515.00;;;;5067232;28;20828;-67
2021/10/23 07:28:23;;;;;;;1.90;1.80;;;4.60;99.90;4.80;97518.00;;;;5071313;28;20461;-66
2021/10/23 07:31:12;;;;;;;4.17;1.83;;;4.80;99.90;4.70;97520.00;;;;5072690;28;20446;-66
2021/10/23 07:34:03;;;;;;;5.00;2.90;;;5.00;99.90;4.60;97505.00;;;;5077023;28;20669;-66
2021/10/23 07:36:51;;;;;;;2.70;2.03;;;5.00;99.90;4.60;97532.00;;;;5069113;28;20427;-67
2021/10/23 07:39:40;;;;;;;3.03;1.70;;;5.20;99.90;4.70;97531.00;;;;5074093;28;20595;-66
2021/10/23 07:42:29;;;;;;;1.13;1.03;;;5.20;99.90;5.30;97538.00;;;;5080913;28;20223;-66
2021/10/23 07:45:18;;;;;;;1.37;1.27;;;5.40;99.90;5.70;97551.00;;;;5073016;28;20207;-68
2021/10/23 07:48:07;;;;;;;9.13;1.67;;;5.70;99.90;5.90;97543.00;;;;5074423;28;20238;-67
2021/10/23 07:50:57;;;;;;;1.40;1.00;;;5.90;99.90;6.20;97547.00;;;;5068400;28;20220;-66
2021/10/23 07:53:46;;;;;;;2.40;1.30;;;6.10;99.90;6.60;97545.00;;;;5071245;28;20203;-65
2021/10/23 07:56:35;;;;;;;1.60;1.00;;;6.40;99.90;6.80;97550.00;;;;5082108;28;20198;-67
2021/10/23 07:59:26;;;;;;;1.77;1.07;;;6.60;99.90;7.00;97538.00;;;;5088876;28;20195;-66
2021/10/23 08:02:15;;;;;;;2.47;1.27;;;6.90;99.90;7.60;97553.00;;;;5067698;28;20227;-65
2021/10/23 08:05:04;;;;;;;2.20;1.07;;;7.20;99.90;7.90;97573.00;;;;5066230;28;20749;-71
2021/10/23 08:07:55;;;;;;;1.50;1.27;;;7.50;99.90;8.20;97567.00;;;;5069949;28;20235;-71
2021/10/23 08:10:44;;;;;;;8.77;2.97;;;7.80;99.90;8.00;97570.00;;;;5083777;28;20229;-71
2021/10/23 08:13:33;;;;;;;1.60;1.50;;;7.90;99.90;8.50;97580.00;;;;5096705;28;20203;-72
2021/10/23 08:16:22;;;;;;;3.03;0.90;;;8.20;99.90;9.10;97584.00;;;;5093023;28;20568;-71
2021/10/23 08:19:11;;;;;;;1.73;0.90;;;8.50;99.90;9.60;97567.00;;;;5079941;28;20207;-73
2021/10/23 08:22:00;;;;;;;1.07;0.90;;;8.90;99.90;10.20;97582.00;;;;5070458;28;20706;-71
2021/10/23 08:24:50;;;;;;;1.00;0.73;;;9.30;99.90;10.40;97575.00;;;;5075120;28;20203;-71
2021/10/23 08:27:42;;;;;;;2.00;1.10;;;9.70;99.90;10.60;97570.00;;;;5098405;28;20223;-74
2021/10/23 08:30:31;;;;;;;1.03;1.00;;;10.00;99.90;11.00;97570.00;;;;5084813;28;20699;-72
2021/10/23 08:33:20;;;;;;;1.47;0.70;;;10.40;99.90;11.00;97569.00;;;;5081551;28;20229;-72
2021/10/23 08:36:10;;;;;;;1.40;0.80;;;10.70;99.90;11.10;97572.00;;;;5068098;28;20562;-72
2021/10/23 08:38:59;;;;;;;1.07;0.90;;;11.00;98.60;11.30;97577.00;;;;5088233;28;20211;-71
2021/10/23 08:41:50;;;;;;;5.20;0.73;;;11.20;91.40;11.70;97578.00;;;;5090458;28;20223;-70
2021/10/23 08:44:40;;;;;;;1.97;1.13;;;11.40;81.60;12.00;97576.00;;;;5078749;28;20207;-72
2021/10/23 08:47:30;;;;;;;1.87;0.50;;;11.50;82.20;11.90;97573.00;;;;5075860;28;20223;-72
2021/10/23 08:50:22;;;;;;;1.20;0.40;;;11.70;78.70;11.90;97583.00;;;;5079583;28;20196;-69
2021/10/23 08:53:12;;;;;;;0.80;0.80;;;11.80;76.40;11.90;97562.00;;;;5078153;28;20202;-72
2021/10/23 08:56:01;;;;;;;1.33;1.20;;;11.90;71.40;11.90;97567.00;;;;5064905;28;20204;-71
2021/10/23 08:58:51;;;;;;;1.17;0.50;;;12.00;70.20;12.10;97584.00;;;;5065352;28;20200;-70
2021/10/23 09:01:40;;;;;;;1.43;0.50;;;12.20;69.20;12.20;97595.00;;;;5077694;28;20324;-71
2021/10/23 09:04:29;;;;;;;3.23;0.87;;;12.30;67.10;12.30;97596.00;;;;5071065;28;20212;-71
2021/10/23 09:07:21;;;;;;;0.73;0.57;;;12.40;67.00;12.30;97588.00;;;;5069844;28;20208;-72
2021/10/23 09:10:10;;;;;;;2.93;1.30;;;12.40;65.00;12.60;97600.00;;;;5078947;28;20196;-70
2021/10/23 09:13:02;;;;;;;1.63;0.97;;;12.50;67.40;13.00;97600.00;;;;5064498;28;20401;-71
2021/10/23 09:15:53;;;;;;;1.13;0.67;;;12.70;66.10;13.10;97610.00;;;;5063154;28;20204;-72
2021/10/23 09:18:46;;;;;;;0.80;0.70;;;12.80;62.90;13.40;97609.00;;;;5065400;28;20207;-71
2021/10/23 09:21:40;;;;;;;1.67;0.70;;;13.00;65.30;13.40;97603.00;;;;5075034;28;20583;-72
2021/10/23 09:24:29;;;;;;;1.37;0.60;;;13.20;62.00;13.90;97609.00;;;;5076601;28;20589;-73
2021/10/23 09:27:19;;;;;;;1.10;0.77;;;13.30;62.60;13.60;97612.00;;;;5093985;28;20197;-71
2021/10/23 09:30:16;;;;;;;0.73;0.70;;;13.50;61.90;13.40;97616.00;;;;5089907;28;20199;-71
2021/10/23 09:33:09;;;;;;;0.97;0.60;;;13.60;59.10;13.20;97611.00;;;;5073675;28;20565;-72
2021/10/23 09:36:03;;;;;;;1.43;0.60;;;13.50;58.30;13.40;97610.00;;;;5068466;28;20219;-72
2021/10/23 09:39:00;;;;;;;0.50;0.50;;;13.50;58.80;13.50;97608.00;;;;5080139;28;20203;-73
2021/10/23 09:42:11;;;;;;;0.90;0.70;;;13.60;58.50;13.40;97605.00;;;;5072562;28;20698;-71
2021/10/23 09:45:03;;;;;;;1.33;0.60;;;13.60;58.40;13.70;97609.00;;;;5074618;28;20207;-69
2021/10/23 09:48:07;;;;;;;0.70;0.53;;;13.70;58.40;14.20;97606.00;;;;5075112;28;20223;-70
2021/10/23 09:51:13;;;;;;;1.23;0.50;;;13.80;58.10;14.60;97611.00;;;;5069864;28;20220;-72
2021/10/23 09:54:04;;;;;;;1.00;0.57;;;14.10;58.70;14.70;97597.00;;;;5082980;28;20200;-71
2021/10/23 09:56:53;;;;;;;1.30;0.70;;;14.30;57.60;14.70;97591.00;;;;5071395;28;20227;-71
2021/10/23 09:59:42;;;;;;;0.40;0.40;;;14.40;57.10;14.20;97587.00;;;;5074999;28;20621;-72
2021/10/23 10:02:31;;;;;;;1.13;0.83;;;14.40;55.70;14.30;97590.00;;;;5072731;28;20216;-72
2021/10/23 10:05:21;;;;;;;1.23;0.87;;;14.50;56.10;14.10;97580.00;;;;5078895;28;20246;-69
2021/10/23 10:08:12;;;;;;;1.60;0.90;;;14.40;55.40;14.80;97578.00;;;;5069346;28;20227;-71
2021/10/23 10:11:01;;;;;;;3.60;0.80;;;14.50;56.00;15.90;97578.00;;;;5073806;28;20736;-73
2021/10/23 10:13:52;;;;;;;0.60;0.60;;;14.80;58.00;15.90;97567.00;;;;5068026;28;20203;-71
2021/10/23 10:16:45;;;;;;;3.13;0.80;;;15.10;56.80;16.80;97564.00;;;;5064774;28;20541;-73
2021/10/23 10:19:33;;;;;;;0.60;0.60;;;15.50;58.10;16.90;97561.00;;;;5081218;28;20206;-74
2021/10/23 10:22:26;;;;;;;0.60;0.60;;;16.00;57.00;17.00;97551.00;;;;5074496;28;20227;-72
2021/10/23 10:25:19;;;;;;;1.80;0.80;;;16.50;55.40;16.80;97544.00;;;;5076988;28;20207;-73
2021/10/23 10:28:12;;;;;;;1.43;0.70;;;16.80;54.00;17.00;97563.00;;;;5072026;28;20227;-74
2021/10/23 10:31:01;;;;;;;0.70;0.63;;;17.00;52.60;17.10;97553.00;;;;5077702;28;20714;-74
2021/10/23 10:33:56;;;;;;;9.93;1.73;;;17.10;52.40;16.30;97550.00;;;;5075635;28;20234;-73
2021/10/23 10:37:51;;;;;;;2.33;0.53;;;17.20;51.60;15.80;97547.00;;;;5070070;28;20200;-74
2021/10/23 10:44:13;;;;;;;0.53;0.50;;;16.40;51.80;16.10;97540.00;;;;5025907;28;20587;-73
2021/10/23 10:47:08;;;;;;;1.07;0.67;;;16.40;53.10;15.40;97551.00;;;;5080180;28;20693;-73
2021/10/23 10:49:57;;;;;;;0.50;0.50;;;16.10;51.70;15.90;97537.00;;;;5080694;28;20712;-72
2021/10/23 10:53:16;;;;;;;1.17;0.87;;;16.00;52.10;16.40;97544.00;;;;5069106;28;20210;-72
2021/10/23 10:56:09;;;;;;;2.50;0.90;;;16.00;52.30;16.60;97547.00;;;;5080433;28;20199;-72
2021/10/23 10:59:00;;;;;;;1.00;0.60;;;16.30;51.40;18.00;97559.00;;;;5072011;28;20908;-72
2021/10/23 11:02:07;;;;;;;2.20;0.80;;;16.80;52.20;18.90;97571.00;;;;5066196;28;20223;-72
2021/10/23 11:05:18;;;;;;;0.87;0.50;;;17.60;53.20;19.80;97569.00;;;;5070503;28;20669;-73
2021/10/23 11:08:17;;;;;;;1.40;0.83;;;18.40;52.60;19.90;97574.00;;;;5072720;28;20208;-74
2021/10/23 11:11:06;;;;;;;0.60;0.40;;;19.10;51.90;19.40;97566.00;;;;5080776;28;20223;-74
2021/10/23 11:14:02;;;;;;;1.67;0.67;;;19.70;49.80;20.60;97571.00;;;;5077753;28;20195;-74
2021/10/23 11:17:00;;;;;;;2.30;0.83;;;19.90;50.90;21.50;97569.00;;;;5072594;28;20191;-72
2021/10/23 11:19:52;;;;;;;0.93;0.60;;;20.30;51.50;20.90;97565.00;;;;5083309;28;20232;-75
2021/10/23 11:22:50;;;;;;;2.37;0.70;;;20.70;48.80;21.00;97560.00;;;;5068029;28;20226;-74
2021/10/23 11:25:40;;;;;;;0.90;0.80;;;21.00;47.60;22.00;97565.00;;;;5068071;28;20211;-74
2021/10/23 11:28:29;;;;;;;3.47;1.03;;;21.30;48.50;22.30;97567.00;;;;5076748;28;20193;-74
2021/10/23 11:31:20;;;;;;;0.80;0.60;;;21.70;49.90;21.10;97575.00;;;;5068214;28;20649;-74
2021/10/23 11:34:09;;;;;;;1.77;1.00;;;21.90;49.20;20.50;97578.00;;;;5079495;28;20202;-74
2021/10/23 11:37:02;;;;;;;1.70;0.90;;;22.10;48.40;21.60;97576.00;;;;5070669;28;20193;-73
2021/10/23 11:39:59;;;;;;;1.10;0.90;;;22.10;49.50;22.00;97573.00;;;;5068533;28;20231;-73
2021/10/23 11:42:50;;;;;;;3.03;1.23;;;22.10;50.00;20.40;97572.00;;;;5076177;28;20229;-73
2021/10/23 11:45:40;;;;;;;1.20;0.90;;;22.30;49.10;20.20;97575.00;;;;5071172;28;20202;-73
2021/10/23 11:48:29;;;;;;;1.97;0.97;;;22.30;49.70;20.20;97575.00;;;;5072312;28;20214;-70
2021/10/23 11:51:20;;;;;;;2.90;1.23;;;21.80;49.30;21.30;97591.00;;;;5075384;28;20217;-72
2021/10/23 11:54:08;;;;;;;2.10;1.57;;;21.60;51.60;20.90;97580.00;;;;5074769;28;20207;-71
2021/10/23 11:56:58;;;;;;;1.77;1.67;;;21.40;51.00;20.60;97584.00;;;;5087003;28;20679;-71
2021/10/23 11:59:48;;;;;;;2.53;1.43;;;21.30;51.30;21.40;97582.00;;;;5085638;28;20699;-71
2021/10/23 12:02:48;;;;;;;2.53;1.60;;;21.40;52.40;21.30;97578.00;;;;5086442;28;20602;-72
2021/10/23 12:05:49;;;;;;;3.53;1.43;;;21.50;51.10;21.40;97574.00;;;;5077472;28;20276;-72
2021/10/23 12:08:38;;;;;;;1.63;1.33;;;21.70;50.80;22.10;97570.00;;;;5066282;28;20196;-73
2021/10/23 12:11:29;;;;;;;4.70;1.30;;;21.80;52.30;22.90;97574.00;;;;5078687;28;20235;-72
2021/10/23 12:14:18;;;;;;;2.83;1.83;;;22.20;52.20;23.20;97578.00;;;;5078492;28;20204;-72
2021/10/23 12:17:08;;;;;;;2.00;1.60;;;22.80;51.60;24.00;97590.00;;;;5082771;28;20303;-73
2021/10/23 12:19:57;;;;;;;2.67;1.40;;;23.30;51.50;23.20;97590.00;;;;5087088;28;20221;-73
2021/10/23 12:22:46;;;;;;;3.55;1.88;;;23.60;50.40;24.30;97578.00;;;;5078905;28;20221;-73
2021/10/23 12:25:39;;;;;;;3.60;1.38;;;23.80;50.40;23.90;97579.00;;;;5089498;28;20576;-72
2021/10/23 12:28:28;;;;;;;2.17;1.30;;;24.20;48.90;24.00;97577.00;;;;5080126;28;20213;-72
2021/10/23 12:31:17;;;;;;;3.45;2.10;;;24.40;49.10;23.10;97572.00;;;;5080384;28;20226;-72
2021/10/23 12:34:07;;;;;;;3.08;1.38;;;24.30;47.80;24.10;97587.00;;;;5076991;28;20301;-73
2021/10/23 12:37:00;;;;;;;2.97;1.77;;;24.20;48.80;24.90;97578.00;;;;5068212;28;20210;-72
2021/10/23 12:40:02;;;;;;;3.85;1.85;;;24.40;48.90;25.50;97591.00;;;;5072859;28;20673;-73
2021/10/23 12:42:58;;;;;;;1.95;1.48;;;24.80;48.90;23.40;97585.00;;;;5082015;28;20212;-74
2021/10/23 12:45:51;;;;;;;2.40;1.90;;;25.00;47.60;23.50;97586.00;;;;5071294;28;20208;-72
2021/10/23 12:48:40;;;;;;;1.88;1.60;;;24.70;47.50;23.10;97614.00;;;;5072043;28;20341;-73
2021/10/23 12:51:31;;;;;;;3.15;1.85;;;24.30;48.00;23.40;97591.00;;;;5081105;28;20236;-73
2021/10/23 12:54:20;;;;;;;1.83;1.65;;;24.00;48.40;22.40;97583.00;;;;5080111;28;20585;-73